createdAt,value
2022-08-24T00:01:24.789Z,101528.00
2022-08-24T00:03:55.254Z,101530.00
2022-08-24T00:06:26.474Z,101541.00
2022-08-24T00:08:55.517Z,101544.00
2022-08-24T00:11:23.309Z,101542.00
2022-08-24T00:13:50.769Z,101534.00
2022-08-24T00:16:18.243Z,101540.00
2022-08-24T00:18:46.883Z,101534.00
2022-08-24T00:21:14.460Z,101533.00
2022-08-24T00:23:41.539Z,101539.00
2022-08-24T00:26:09.375Z,101532.00
2022-08-24T00:28:37.272Z,101539.00
2022-08-24T00:31:04.554Z,101538.00
2022-08-24T00:33:34.982Z,101546.00
2022-08-24T00:36:02.793Z,101538.00
2022-08-24T00:38:32.645Z,101542.00
2022-08-24T00:40:59.467Z,101549.00
2022-08-24T00:43:26.603Z,101545.00
2022-08-24T00:46:13.295Z,101545.00
2022-08-24T00:48:46.051Z,101549.00
2022-08-24T00:51:27.587Z,101549.00
2022-08-24T00:54:05.013Z,101542.00
2022-08-24T00:56:41.971Z,101542.00
2022-08-24T00:59:16.302Z,101548.00
2022-08-24T01:01:44.396Z,101539.00
2022-08-24T01:04:20.374Z,101544.00
2022-08-24T01:06:49.012Z,101537.00
2022-08-24T01:09:17.075Z,101538.00
2022-08-24T01:11:43.914Z,101546.00
2022-08-24T01:14:10.906Z,101534.00
2022-08-24T01:16:57.550Z,101539.00
2022-08-24T01:19:45.089Z,101546.00
2022-08-24T01:22:47.670Z,101543.00
2022-08-24T01:25:15.178Z,101533.00
2022-08-24T01:27:43.676Z,101536.00
2022-08-24T01:30:14.478Z,101539.00
2022-08-24T01:32:51.893Z,101553.00
2022-08-24T01:35:18.652Z,101536.00
2022-08-24T01:37:45.583Z,101546.00
2022-08-24T01:40:13.480Z,101553.00
2022-08-24T01:42:40.245Z,101543.00
2022-08-24T01:45:07.868Z,101547.00
2022-08-24T01:47:34.633Z,101553.00
2022-08-24T01:50:02.622Z,101546.00
2022-08-24T01:52:43.430Z,101554.00
2022-08-24T01:55:19.774Z,101551.00
2022-08-24T01:57:49.627Z,101557.00
2022-08-24T02:00:16.663Z,101552.00
2022-08-24T02:02:45.482Z,101550.00
2022-08-24T02:05:15.713Z,101556.00
2022-08-24T02:07:42.644Z,101557.00
2022-08-24T02:10:12.847Z,101550.00
2022-08-24T02:12:44.145Z,101555.00
2022-08-24T02:15:11.507Z,101568.00
2022-08-24T02:17:38.942Z,101564.00
2022-08-24T02:20:07.567Z,101567.00
2022-08-24T02:22:34.382Z,101562.00
2022-08-24T02:25:01.681Z,101557.00
2022-08-24T02:27:28.444Z,101557.00
2022-08-24T02:29:55.206Z,101559.00
2022-08-24T02:32:21.970Z,101557.00
2022-08-24T02:34:48.721Z,101554.00
2022-08-24T02:37:16.157Z,101555.00
2022-08-24T02:39:42.989Z,101555.00
2022-08-24T02:42:09.828Z,101558.00
2022-08-24T02:44:36.618Z,101546.00
2022-08-24T02:47:03.612Z,101553.00
2022-08-24T02:49:30.509Z,101548.00
2022-08-24T02:51:57.813Z,101548.00
2022-08-24T02:54:24.577Z,101552.00
2022-08-24T02:56:51.609Z,101549.00
2022-08-24T02:59:18.745Z,101541.00
2022-08-24T03:01:49.846Z,101538.00
2022-08-24T03:04:18.078Z,101537.00
2022-08-24T03:06:44.849Z,101541.00
2022-08-24T03:09:13.808Z,101546.00
2022-08-24T03:11:45.338Z,101533.00
2022-08-24T03:14:13.361Z,101552.00
2022-08-24T03:16:41.016Z,101557.00
2022-08-24T03:19:07.779Z,101549.00
2022-08-24T03:21:34.564Z,101546.00
2022-08-24T03:24:01.384Z,101540.00
2022-08-24T03:26:28.289Z,101545.00
2022-08-24T03:28:55.140Z,101538.00
2022-08-24T03:31:22.429Z,101545.00
2022-08-24T03:33:49.524Z,101546.00
2022-08-24T03:36:16.810Z,101544.00
2022-08-24T03:38:44.219Z,101555.00
2022-08-24T03:41:11.659Z,101550.00
2022-08-24T03:43:46.489Z,101553.00
2022-08-24T03:46:19.765Z,101552.00
2022-08-24T03:48:49.345Z,101560.00
2022-08-24T03:51:21.405Z,101556.00
2022-08-24T03:53:48.140Z,101547.00
2022-08-24T03:56:15.030Z,101553.00
2022-08-24T03:58:42.053Z,101561.00
2022-08-24T04:01:09.362Z,101555.00
2022-08-24T04:03:42.012Z,101556.00
2022-08-24T04:06:11.875Z,101561.00
2022-08-24T04:08:40.674Z,101564.00
2022-08-24T04:11:13.535Z,101566.00
2022-08-24T04:13:40.659Z,101566.00
2022-08-24T04:16:12.467Z,101573.00
2022-08-24T04:18:41.257Z,101572.00
2022-08-24T04:21:22.424Z,101573.00
2022-08-24T04:23:51.744Z,101566.00
2022-08-24T04:26:43.911Z,101583.00
2022-08-24T04:29:10.906Z,101572.00
2022-08-24T04:31:39.594Z,101583.00
2022-08-24T04:34:08.338Z,101576.00
2022-08-24T04:36:35.709Z,101578.00
2022-08-24T04:39:03.622Z,101580.00
2022-08-24T04:41:31.464Z,101588.00
2022-08-24T04:43:59.727Z,101585.00
2022-08-24T04:46:28.217Z,101577.00
2022-08-24T04:48:55.430Z,101571.00
2022-08-24T04:51:22.574Z,101588.00
2022-08-24T04:53:50.625Z,101585.00
2022-08-24T04:56:24.727Z,101594.00
2022-08-24T04:58:54.910Z,101578.00
2022-08-24T05:01:26.214Z,101586.00
2022-08-24T05:03:55.311Z,101593.00
2022-08-24T05:06:30.900Z,101594.00
2022-08-24T05:08:58.393Z,101598.00
2022-08-24T05:11:26.821Z,101603.00
2022-08-24T05:13:56.528Z,101606.00
2022-08-24T05:16:25.290Z,101613.00
2022-08-24T05:18:52.852Z,101608.00
2022-08-24T05:21:22.581Z,101621.00
2022-08-24T05:23:49.893Z,101624.00
2022-08-24T05:26:25.810Z,101620.00
2022-08-24T05:29:01.859Z,101625.00
2022-08-24T05:31:32.710Z,101623.00
2022-08-24T05:34:01.916Z,101618.00
2022-08-24T05:36:33.845Z,101615.00
2022-08-24T05:39:10.529Z,101612.00
2022-08-24T05:41:44.510Z,101619.00
2022-08-24T05:44:14.407Z,101623.00
2022-08-24T05:46:41.643Z,101629.00
2022-08-24T05:49:09.300Z,101628.00
2022-08-24T05:51:37.010Z,101629.00
2022-08-24T05:54:05.105Z,101633.00
2022-08-24T05:56:32.281Z,101635.00
2022-08-24T05:58:59.333Z,101637.00
2022-08-24T06:01:27.953Z,101630.00
2022-08-24T06:03:57.457Z,101643.00
2022-08-24T06:06:26.657Z,101641.00
2022-08-24T06:08:57.913Z,101636.00
2022-08-24T06:11:30.484Z,101637.00
2022-08-24T06:14:14.518Z,101641.00
2022-08-24T06:16:45.952Z,101646.00
2022-08-24T06:19:16.436Z,101641.00
2022-08-24T06:21:46.760Z,101637.00
2022-08-24T06:24:15.855Z,101645.00
2022-08-24T06:27:03.625Z,101652.00
2022-08-24T06:29:33.353Z,101633.00
2022-08-24T06:32:00.195Z,101651.00
2022-08-24T06:34:27.069Z,101649.00
2022-08-24T06:36:53.927Z,101640.00
2022-08-24T06:39:20.841Z,101654.00
2022-08-24T06:41:47.738Z,101659.00
2022-08-24T06:44:14.730Z,101662.00
2022-08-24T06:46:41.598Z,101654.00
2022-08-24T06:49:08.501Z,101661.00
2022-08-24T06:51:35.316Z,101662.00
2022-08-24T06:54:02.146Z,101674.00
2022-08-24T06:56:29.089Z,101667.00
2022-08-24T06:58:56.132Z,101667.00
2022-08-24T07:01:28.365Z,101677.00
2022-08-24T07:03:55.991Z,101671.00
2022-08-24T07:06:24.890Z,101676.00
2022-08-24T07:08:54.007Z,101683.00
2022-08-24T07:11:22.574Z,101672.00
2022-08-24T07:13:50.441Z,101671.00
2022-08-24T07:16:19.970Z,101682.00
2022-08-24T07:18:50.204Z,101675.00
2022-08-24T07:21:20.164Z,101684.00
2022-08-24T07:23:49.563Z,101677.00
2022-08-24T07:26:22.923Z,101671.00
2022-08-24T07:28:53.183Z,101675.00
2022-08-24T07:31:21.361Z,101675.00
2022-08-24T07:33:48.582Z,101685.00
2022-08-24T07:36:22.748Z,101684.00
2022-08-24T07:38:52.565Z,101691.00
2022-08-24T07:41:51.428Z,101687.00
2022-08-24T07:44:13.027Z,101684.00
2022-08-24T07:46:41.677Z,101691.00
2022-08-24T07:49:12.602Z,101689.00
2022-08-24T07:51:48.624Z,101690.00
2022-08-24T07:54:15.926Z,101695.00
2022-08-24T07:56:43.077Z,101693.00
2022-08-24T07:59:13.206Z,101692.00
2022-08-24T08:01:41.350Z,101696.00
2022-08-24T08:04:09.358Z,101690.00
2022-08-24T08:06:37.071Z,101696.00
2022-08-24T08:09:05.706Z,101701.00
2022-08-24T08:11:33.319Z,101700.00
2022-08-24T08:14:00.800Z,101709.00
2022-08-24T08:16:27.976Z,101700.00
2022-08-24T08:19:11.251Z,101703.00
2022-08-24T08:22:11.997Z,101701.00
2022-08-24T08:24:43.820Z,101695.00
2022-08-24T08:27:12.912Z,101696.00
2022-08-24T08:29:41.676Z,101703.00
2022-08-24T08:32:14.603Z,101695.00
2022-08-24T08:34:41.661Z,101687.00
2022-08-24T08:37:08.818Z,101699.00
2022-08-24T08:39:35.968Z,101710.00
2022-08-24T08:42:35.571Z,101703.00
2022-08-24T08:45:39.231Z,101699.00
2022-08-24T08:48:47.391Z,101709.00
2022-08-24T08:51:51.496Z,101717.00
2022-08-24T08:54:48.444Z,101714.00
2022-08-24T08:58:01.992Z,101714.00
2022-08-24T09:01:05.765Z,101716.00
2022-08-24T09:04:29.296Z,101727.00
2022-08-24T09:07:31.180Z,101724.00
2022-08-24T09:10:26.779Z,101725.00
2022-08-24T09:12:53.736Z,101727.00
2022-08-24T09:16:16.485Z,101724.00
2022-08-24T09:19:35.038Z,101726.00
2022-08-24T09:22:27.410Z,101728.00
2022-08-24T09:24:54.205Z,101722.00
2022-08-24T09:28:07.954Z,101728.00
2022-08-24T09:31:24.183Z,101735.00
2022-08-24T09:34:15.846Z,101729.00
2022-08-24T09:37:35.462Z,101725.00
2022-08-24T09:40:23.950Z,101730.00
2022-08-24T09:43:36.668Z,101725.00
2022-08-24T09:46:21.560Z,101726.00
2022-08-24T09:49:52.654Z,101717.00
2022-08-24T09:52:52.142Z,101733.00
2022-08-24T09:55:36.816Z,101718.00
2022-08-24T09:58:51.071Z,101726.00
2022-08-24T10:01:52.839Z,101728.00
2022-08-24T10:04:50.734Z,101733.00
2022-08-24T10:07:51.011Z,101726.00
2022-08-24T10:10:33.129Z,101727.00
2022-08-24T10:13:40.261Z,101715.00
2022-08-24T10:16:32.678Z,101721.00
2022-08-24T10:19:22.811Z,101712.00
2022-08-24T10:22:24.260Z,101713.00
2022-08-24T10:25:06.130Z,101713.00
2022-08-24T10:28:04.053Z,101705.00
2022-08-24T10:30:50.324Z,101700.00
2022-08-24T10:33:38.958Z,101704.00
2022-08-24T10:36:24.932Z,101705.00
2022-08-24T10:39:43.644Z,101699.00
2022-08-24T10:42:53.116Z,101698.00
2022-08-24T10:45:57.589Z,101692.00
2022-08-24T10:49:16.448Z,101697.00
2022-08-24T10:52:25.784Z,101690.00
2022-08-24T10:54:52.971Z,101690.00
2022-08-24T10:57:39.125Z,101689.00
2022-08-24T11:00:22.621Z,101693.00
2022-08-24T11:03:04.863Z,101701.00
2022-08-24T11:05:53.909Z,101695.00
2022-08-24T11:08:30.210Z,101695.00
2022-08-24T11:11:14.462Z,101701.00
2022-08-24T11:14:00.256Z,101699.00
2022-08-24T11:16:31.487Z,101700.00
2022-08-24T11:19:03.396Z,101693.00
2022-08-24T11:21:49.949Z,101693.00
2022-08-24T11:24:25.466Z,101682.00
2022-08-24T11:26:59.146Z,101680.00
2022-08-24T11:29:51.448Z,101687.00
2022-08-24T11:32:42.416Z,101673.00
2022-08-24T11:35:23.800Z,101668.00
2022-08-24T11:38:03.628Z,101671.00
2022-08-24T11:40:39.925Z,101672.00
2022-08-24T11:43:30.842Z,101675.00
2022-08-24T11:46:08.145Z,101674.00
2022-08-24T11:49:02.263Z,101671.00
2022-08-24T11:51:43.429Z,101677.00
2022-08-24T11:54:43.694Z,101670.00
2022-08-24T11:57:29.837Z,101669.00
2022-08-24T12:00:21.004Z,101664.00
2022-08-24T12:03:33.859Z,101657.00
2022-08-24T12:06:35.576Z,101662.00
2022-08-24T12:09:47.285Z,101657.00
2022-08-24T12:12:30.427Z,101655.00
2022-08-24T12:15:16.027Z,101656.00
2022-08-24T12:18:00.885Z,101658.00
2022-08-24T12:20:41.333Z,101659.00
2022-08-24T12:23:20.801Z,101659.00
2022-08-24T12:26:04.603Z,101656.00
2022-08-24T12:28:40.042Z,101648.00
2022-08-24T12:31:36.134Z,101649.00
2022-08-24T12:34:30.254Z,101648.00
2022-08-24T12:37:19.756Z,101650.00
2022-08-24T12:40:40.097Z,101644.00
2022-08-24T12:43:25.975Z,101649.00
2022-08-24T12:45:59.900Z,101642.00
2022-08-24T12:48:39.562Z,101646.00
2022-08-24T12:51:35.078Z,101631.00
2022-08-24T12:54:52.492Z,101634.00
2022-08-24T12:57:57.951Z,101638.00
2022-08-24T13:00:47.132Z,101642.00
2022-08-24T13:03:38.385Z,101628.00
2022-08-24T13:06:27.506Z,101644.00
2022-08-24T13:09:10.917Z,101644.00
2022-08-24T13:11:38.413Z,101649.00
2022-08-24T13:14:10.201Z,101648.00
2022-08-24T13:16:56.396Z,101659.00
2022-08-24T13:19:23.056Z,101642.00
2022-08-24T13:21:54.847Z,101642.00
2022-08-24T13:24:31.006Z,101644.00
2022-08-24T13:27:12.845Z,101643.00
2022-08-24T13:30:05.040Z,101645.00
2022-08-24T13:32:50.988Z,101642.00
2022-08-24T13:35:53.926Z,101646.00
2022-08-24T13:38:35.936Z,101645.00
2022-08-24T13:41:08.613Z,101649.00
2022-08-24T13:44:06.097Z,101642.00
2022-08-24T13:47:06.044Z,101643.00
2022-08-24T13:49:51.933Z,101647.00
2022-08-24T13:52:38.508Z,101645.00
2022-08-24T13:55:35.109Z,101640.00
2022-08-24T13:58:22.656Z,101635.00
2022-08-24T14:01:18.635Z,101638.00
2022-08-24T14:04:22.077Z,101636.00
2022-08-24T14:07:17.288Z,101642.00
2022-08-24T14:10:08.515Z,101642.00
2022-08-24T14:12:56.353Z,101644.00
2022-08-24T14:15:45.832Z,101643.00
2022-08-24T14:18:28.008Z,101636.00
2022-08-24T14:21:11.048Z,101631.00
2022-08-24T14:23:56.322Z,101633.00
2022-08-24T14:26:36.892Z,101629.00
2022-08-24T14:29:20.195Z,101642.00
2022-08-24T14:32:00.260Z,101634.00
2022-08-24T14:35:17.088Z,101646.00
2022-08-24T14:38:25.022Z,101633.00
2022-08-24T14:41:35.494Z,101635.00
2022-08-24T14:44:19.772Z,101644.00
2022-08-24T14:47:13.739Z,101629.00
2022-08-24T14:49:58.447Z,101633.00
2022-08-24T14:53:43.218Z,101625.00
2022-08-24T14:57:09.937Z,101621.00
2022-08-24T15:00:16.378Z,101614.00
2022-08-24T15:03:09.401Z,101619.00
2022-08-24T15:06:25.182Z,101612.00
2022-08-24T15:08:47.060Z,101612.00
2022-08-24T15:11:25.310Z,101606.00
2022-08-24T15:14:09.105Z,101609.00
2022-08-24T15:16:54.109Z,101612.00
2022-08-24T15:19:35.952Z,101608.00
2022-08-24T15:22:13.726Z,101606.00
2022-08-24T15:24:59.927Z,101603.00
2022-08-24T15:28:05.990Z,101601.00
2022-08-24T15:30:37.264Z,101603.00
2022-08-24T15:33:19.066Z,101596.00
2022-08-24T15:35:51.825Z,101604.00
2022-08-24T15:38:30.346Z,101603.00
2022-08-24T15:41:31.556Z,101598.00
2022-08-24T15:44:21.366Z,101606.00
2022-08-24T15:47:03.001Z,101616.00
2022-08-24T15:49:45.067Z,101609.00
2022-08-24T15:52:55.637Z,101614.00
2022-08-24T15:55:47.505Z,101613.00
2022-08-24T15:58:36.413Z,101609.00
2022-08-24T16:01:31.072Z,101607.00
2022-08-24T16:04:02.074Z,101603.00
2022-08-24T16:06:32.062Z,101602.00
2022-08-24T16:09:22.455Z,101597.00
2022-08-24T16:12:05.063Z,101597.00
2022-08-24T16:14:39.343Z,101590.00
2022-08-24T16:17:32.576Z,101601.00
2022-08-24T16:20:17.413Z,101591.00
2022-08-24T16:23:07.488Z,101595.00
2022-08-24T16:25:42.344Z,101592.00
2022-08-24T16:28:35.989Z,101590.00
2022-08-24T16:31:07.869Z,101601.00
2022-08-24T16:33:45.670Z,101580.00
2022-08-24T16:36:20.533Z,101595.00
2022-08-24T16:38:50.917Z,101595.00
2022-08-24T16:41:24.135Z,101598.00
2022-08-24T16:43:51.370Z,101593.00
2022-08-24T16:46:23.804Z,101602.00
2022-08-24T16:48:54.112Z,101601.00
2022-08-24T16:51:24.608Z,101608.00
2022-08-24T16:53:52.150Z,101600.00
2022-08-24T16:56:19.250Z,101593.00
2022-08-24T16:58:47.564Z,101609.00
2022-08-24T17:01:15.103Z,101601.00
2022-08-24T17:03:42.618Z,101612.00
2022-08-24T17:06:14.711Z,101601.00
2022-08-24T17:08:41.633Z,101600.00
2022-08-24T17:11:08.575Z,101606.00
2022-08-24T17:13:51.005Z,101606.00
2022-08-24T17:16:20.932Z,101603.00
2022-08-24T17:18:48.410Z,101603.00
2022-08-24T17:21:15.848Z,101615.00
2022-08-24T17:23:43.242Z,101618.00
2022-08-24T17:26:20.978Z,101617.00
2022-08-24T17:28:52.584Z,101621.00
2022-08-24T17:31:19.928Z,101624.00
2022-08-24T17:33:46.782Z,101626.00
2022-08-24T17:36:16.463Z,101630.00
2022-08-24T17:38:54.671Z,101630.00
2022-08-24T17:41:24.854Z,101632.00
2022-08-24T17:43:53.624Z,101637.00
2022-08-24T17:46:21.911Z,101634.00
2022-08-24T17:48:48.847Z,101647.00
2022-08-24T17:51:16.376Z,101647.00
2022-08-24T17:53:43.113Z,101639.00
2022-08-24T17:56:13.297Z,101641.00
2022-08-24T17:59:00.047Z,101635.00
2022-08-24T18:01:27.455Z,101648.00
2022-08-24T18:03:54.740Z,101649.00
2022-08-24T18:06:24.625Z,101649.00
2022-08-24T18:08:52.910Z,101654.00
2022-08-24T18:11:22.749Z,101662.00
2022-08-24T18:13:53.554Z,101654.00
2022-08-24T18:16:24.452Z,101668.00
2022-08-24T18:18:52.640Z,101669.00
2022-08-24T18:21:20.582Z,101672.00
2022-08-24T18:23:49.224Z,101682.00
2022-08-24T18:26:27.799Z,101672.00
2022-08-24T18:29:00.081Z,101680.00
2022-08-24T18:31:27.811Z,101678.00
2022-08-24T18:33:54.683Z,101677.00
2022-08-24T18:36:21.804Z,101687.00
2022-08-24T18:38:49.237Z,101697.00
2022-08-24T18:41:17.050Z,101697.00
2022-08-24T18:43:44.120Z,101682.00
2022-08-24T18:46:11.050Z,101679.00
2022-08-24T18:48:37.956Z,101691.00
2022-08-24T18:51:05.295Z,101683.00
2022-08-24T18:53:35.563Z,101699.00
2022-08-24T18:56:09.362Z,101702.00
2022-08-24T18:58:39.044Z,101701.00
2022-08-24T19:01:07.686Z,101697.00
2022-08-24T19:03:34.950Z,101709.00
2022-08-24T19:06:01.796Z,101708.00
2022-08-24T19:08:28.925Z,101701.00
2022-08-24T19:10:56.147Z,101709.00
2022-08-24T19:13:22.966Z,101703.00
2022-08-24T19:15:50.987Z,101697.00
2022-08-24T19:18:21.312Z,101697.00
2022-08-24T19:20:54.185Z,101703.00
2022-08-24T19:23:30.039Z,101699.00
2022-08-24T19:25:58.490Z,101695.00
2022-08-24T19:28:27.028Z,101702.00
2022-08-24T19:30:56.963Z,101700.00
2022-08-24T19:33:28.428Z,101704.00
2022-08-24T19:35:55.621Z,101702.00
2022-08-24T19:38:25.861Z,101709.00
2022-08-24T19:40:56.600Z,101706.00
2022-08-24T19:43:28.874Z,101705.00
2022-08-24T19:46:06.268Z,101702.00
2022-08-24T19:48:37.321Z,101699.00
2022-08-24T19:51:10.082Z,101703.00
2022-08-24T19:53:38.333Z,101701.00
2022-08-24T19:56:07.123Z,101706.00
2022-08-24T19:58:46.376Z,101701.00
2022-08-24T20:01:21.007Z,101714.00
2022-08-24T20:03:48.783Z,101694.00
2022-08-24T20:06:18.493Z,101706.00
2022-08-24T20:08:48.475Z,101709.00
2022-08-24T20:11:15.880Z,101717.00
2022-08-24T20:13:43.628Z,101717.00
2022-08-24T20:16:14.655Z,101714.00
2022-08-24T20:18:42.294Z,101697.00
2022-08-24T20:21:09.387Z,101703.00
2022-08-24T20:23:36.210Z,101706.00
2022-08-24T20:26:06.213Z,101702.00
2022-08-24T20:28:50.808Z,101701.00
2022-08-24T20:31:19.615Z,101711.00
2022-08-24T20:33:55.043Z,101719.00
2022-08-24T20:36:30.984Z,101716.00
2022-08-24T20:39:00.818Z,101709.00
2022-08-24T20:41:28.417Z,101717.00
2022-08-24T20:43:56.938Z,101709.00
2022-08-24T20:46:26.806Z,101713.00
2022-08-24T20:48:55.854Z,101709.00
2022-08-24T20:51:24.332Z,101718.00
2022-08-24T20:53:51.114Z,101720.00
2022-08-24T20:56:33.238Z,101717.00
2022-08-24T20:59:09.744Z,101721.00
2022-08-24T21:01:38.294Z,101707.00
2022-08-24T21:04:05.704Z,101719.00
2022-08-24T21:06:34.092Z,101712.00
2022-08-24T21:09:01.020Z,101718.00
2022-08-24T21:11:28.146Z,101714.00
2022-08-24T21:13:55.141Z,101717.00
2022-08-24T21:16:21.993Z,101718.00
2022-08-24T21:18:48.886Z,101715.00
2022-08-24T21:21:15.690Z,101706.00
2022-08-24T21:23:42.692Z,101709.00
2022-08-24T21:26:14.048Z,101713.00
2022-08-24T21:28:43.679Z,101712.00
2022-08-24T21:31:10.854Z,101716.00
2022-08-24T21:33:56.466Z,101715.00
2022-08-24T21:36:25.383Z,101714.00
2022-08-24T21:38:54.594Z,101716.00
2022-08-24T21:41:22.113Z,101711.00
2022-08-24T21:43:49.113Z,101709.00
2022-08-24T21:46:17.099Z,101714.00
2022-08-24T21:48:44.009Z,101714.00
2022-08-24T21:51:10.815Z,101718.00
2022-08-24T21:53:37.694Z,101732.00
2022-08-24T21:56:05.097Z,101724.00
2022-08-24T21:58:31.927Z,101730.00
2022-08-24T22:00:59.506Z,101727.00
2022-08-24T22:03:31.653Z,101725.00
2022-08-24T22:06:08.855Z,101727.00
2022-08-24T22:08:39.115Z,101719.00
2022-08-24T22:11:06.200Z,101712.00
2022-08-24T22:13:34.299Z,101720.00
2022-08-24T22:16:01.911Z,101722.00
2022-08-24T22:18:29.263Z,101715.00
2022-08-24T22:20:56.024Z,101720.00
2022-08-24T22:23:24.197Z,101721.00
2022-08-24T22:25:53.454Z,101717.00
2022-08-24T22:28:20.860Z,101713.00
2022-08-24T22:30:48.872Z,101721.00
2022-08-24T22:33:16.996Z,101713.00
2022-08-24T22:35:45.322Z,101720.00
2022-08-24T22:38:13.062Z,101717.00
2022-08-24T22:40:39.912Z,101713.00
2022-08-24T22:43:06.758Z,101724.00
2022-08-24T22:45:33.611Z,101710.00
2022-08-24T22:48:00.388Z,101705.00
2022-08-24T22:50:27.722Z,101710.00
2022-08-24T22:52:54.663Z,101704.00
2022-08-24T22:55:21.406Z,101705.00
2022-08-24T22:57:51.153Z,101707.00
2022-08-24T23:00:18.692Z,101709.00
2022-08-24T23:02:45.750Z,101714.00
2022-08-24T23:05:12.863Z,101701.00
2022-08-24T23:07:39.695Z,101704.00
2022-08-24T23:10:07.883Z,101706.00
2022-08-24T23:12:34.684Z,101710.00
2022-08-24T23:15:01.622Z,101707.00
2022-08-24T23:17:28.594Z,101697.00
2022-08-24T23:20:01.936Z,101700.00
2022-08-24T23:22:36.957Z,101696.00
2022-08-24T23:25:07.232Z,101698.00
2022-08-24T23:27:38.217Z,101697.00
2022-08-24T23:30:10.550Z,101692.00
2022-08-24T23:32:37.936Z,101692.00
2022-08-24T23:35:05.663Z,101696.00
2022-08-24T23:37:32.651Z,101690.00
2022-08-24T23:39:59.622Z,101688.00
2022-08-24T23:42:26.490Z,101698.00
2022-08-24T23:44:53.344Z,101689.00
2022-08-24T23:47:20.974Z,101687.00
2022-08-24T23:49:47.800Z,101682.00
2022-08-24T23:52:28.339Z,101677.00
2022-08-24T23:55:11.705Z,101674.00
2022-08-24T23:57:44.431Z,101681.00
